sensor_id;sensor_type;location;lat;lon;timestamp;pressure;altitude;pressure_sealevel;temperature;humidity
55010;BME280;40903;51.638;7.528;2022-11-15T00:00:13;100403.94;;;9.09;93.74
55010;BME280;40903;51.638;7.528;2022-11-15T00:02:38;100408.78;;;9.12;94.09
55010;BME280;40903;51.638;7.528;2022-11-15T00:05:03;100404.97;;;9.13;94.12
55010;BME280;40903;51.638;7.528;2022-11-15T00:07:29;100405.50;;;9.15;94.44
55010;BME280;40903;51.638;7.528;2022-11-15T00:09:54;100402.50;;;9.17;94.65
55010;BME280;40903;51.638;7.528;2022-11-15T00:12:19;100403.00;;;9.19;94.96
55010;BME280;40903;51.638;7.528;2022-11-15T00:14:44;100394.53;;;9.20;95.24
55010;BME280;40903;51.638;7.528;2022-11-15T00:17:09;100396.16;;;9.21;95.95
55010;BME280;40903;51.638;7.528;2022-11-15T00:19:35;100395.59;;;9.24;95.58
55010;BME280;40903;51.638;7.528;2022-11-15T00:22:00;100394.19;;;9.27;96.30
55010;BME280;40903;51.638;7.528;2022-11-15T00:24:25;100394.19;;;9.27;96.57
55010;BME280;40903;51.638;7.528;2022-11-15T00:26:50;100390.38;;;9.28;96.74
55010;BME280;40903;51.638;7.528;2022-11-15T00:29:15;100390.88;;;9.30;96.82
55010;BME280;40903;51.638;7.528;2022-11-15T00:31:41;100390.63;;;9.31;97.33
55010;BME280;40903;51.638;7.528;2022-11-15T00:34:06;100394.38;;;9.35;97.98
55010;BME280;40903;51.638;7.528;2022-11-15T00:36:34;100389.44;;;9.37;97.88
55010;BME280;40903;51.638;7.528;2022-11-15T00:38:59;100384.81;;;9.38;98.04
55010;BME280;40903;51.638;7.528;2022-11-15T00:41:25;100381.81;;;9.39;98.19
55010;BME280;40903;51.638;7.528;2022-11-15T00:43:50;100381.50;;;9.41;98.55
55010;BME280;40903;51.638;7.528;2022-11-15T00:46:15;100377.69;;;9.42;98.60
55010;BME280;40903;51.638;7.528;2022-11-15T00:48:40;100381.44;;;9.46;98.82
55010;BME280;40903;51.638;7.528;2022-11-15T00:51:05;100386.34;;;9.49;99.25
55010;BME280;40903;51.638;7.528;2022-11-15T00:53:31;100378.38;;;9.52;99.28
55010;BME280;40903;51.638;7.528;2022-11-15T00:55:56;100373.47;;;9.54;99.80
55010;BME280;40903;51.638;7.528;2022-11-15T00:58:21;100373.16;;;9.56;99.95
55010;BME280;40903;51.638;7.528;2022-11-15T01:00:46;100385.91;;;9.60;100.00
55010;BME280;40903;51.638;7.528;2022-11-15T01:03:12;100375.53;;;9.62;100.00
55010;BME280;40903;51.638;7.528;2022-11-15T01:05:37;100369.22;;;9.67;100.00
55010;BME280;40903;51.638;7.528;2022-11-15T01:08:03;100371.06;;;9.71;100.00
55010;BME280;40903;51.638;7.528;2022-11-15T01:10:28;100366.38;;;9.76;100.00
55010;BME280;40903;51.638;7.528;2022-11-15T01:12:53;100371.41;;;9.83;100.00
55010;BME280;40903;51.638;7.528;2022-11-15T01:15:19;100367.03;;;9.87;100.00
55010;BME280;40903;51.638;7.528;2022-11-15T01:17:44;100357.16;;;9.91;100.00
55010;BME280;40903;51.638;7.528;2022-11-15T01:20:09;100356.50;;;9.99;100.00
55010;BME280;40903;51.638;7.528;2022-11-15T01:22:34;100358.34;;;10.03;100.00
55010;BME280;40903;51.638;7.528;2022-11-15T01:25:00;100351.94;;;10.13;100.00
55010;BME280;40903;51.638;7.528;2022-11-15T01:27:25;100350.47;;;10.20;100.00
55010;BME280;40903;51.638;7.528;2022-11-15T01:29:50;100356.66;;;10.26;100.00
55010;BME280;40903;51.638;7.528;2022-11-15T01:32:15;100362.22;;;10.34;100.00
55010;BME280;40903;51.638;7.528;2022-11-15T01:34:41;100351.47;;;10.43;100.00
55010;BME280;40903;51.638;7.528;2022-11-15T01:37:06;100357.34;;;10.50;100.00
55010;BME280;40903;51.638;7.528;2022-11-15T01:39:31;100351.81;;;10.55;100.00
55010;BME280;40903;51.638;7.528;2022-11-15T01:41:56;100355.03;;;10.57;100.00
55010;BME280;40903;51.638;7.528;2022-11-15T01:46:56;100349.91;;;10.69;100.00
55010;BME280;40903;51.638;7.528;2022-11-15T01:49:22;100343.84;;;10.72;100.00
55010;BME280;40903;51.638;7.528;2022-11-15T01:51:48;100342.75;;;10.73;100.00
55010;BME280;40903;51.638;7.528;2022-11-15T01:54:15;100339.94;;;10.78;100.00
55010;BME280;40903;51.638;7.528;2022-11-15T01:56:45;100339.75;;;10.88;100.00
55010;BME280;40903;51.638;7.528;2022-11-15T01:59:11;100329.88;;;10.92;100.00
55010;BME280;40903;51.638;7.528;2022-11-15T02:01:37;100329.03;;;10.91;100.00
55010;BME280;40903;51.638;7.528;2022-11-15T02:06:34;100326.63;;;10.90;100.00
55010;BME280;40903;51.638;7.528;2022-11-15T02:09:00;100327.22;;;10.87;100.00
55010;BME280;40903;51.638;7.528;2022-11-15T02:11:26;100322.38;;;10.84;100.00
55010;BME280;40903;51.638;7.528;2022-11-15T02:13:51;100325.81;;;10.89;100.00
55010;BME280;40903;51.638;7.528;2022-11-15T02:16:33;100323.09;;;10.89;100.00
55010;BME280;40903;51.638;7.528;2022-11-15T02:37:23;100320.38;;;11.57;100.00
55010;BME280;40903;51.638;7.528;2022-11-15T02:42:23;100311.88;;;11.58;100.00
55010;BME280;40903;51.638;7.528;2022-11-15T02:45:09;100311.75;;;11.63;100.00
55010;BME280;40903;51.638;7.528;2022-11-15T02:47:43;100309.03;;;11.63;100.00
55010;BME280;40903;51.638;7.528;2022-11-15T02:50:10;100307.41;;;11.62;100.00
55010;BME280;40903;51.638;7.528;2022-11-15T02:52:37;100302.75;;;11.63;100.00
55010;BME280;40903;51.638;7.528;2022-11-15T02:55:02;100309.22;;;11.67;100.00
55010;BME280;40903;51.638;7.528;2022-11-15T03:00:06;100303.94;;;11.70;100.00
55010;BME280;40903;51.638;7.528;2022-11-15T03:08:10;100304.75;;;11.71;100.00
55010;BME280;40903;51.638;7.528;2022-11-15T03:13:16;100303.66;;;11.72;100.00
55010;BME280;40903;51.638;7.528;2022-11-15T03:15:47;100301.41;;;11.73;100.00
55010;BME280;40903;51.638;7.528;2022-11-15T03:18:16;100307.19;;;11.72;100.00
55010;BME280;40903;51.638;7.528;2022-11-15T03:20:43;100307.69;;;11.74;100.00
55010;BME280;40903;51.638;7.528;2022-11-15T03:23:09;100305.75;;;11.74;100.00
55010;BME280;40903;51.638;7.528;2022-11-15T03:25:36;100304.00;;;11.78;100.00
55010;BME280;40903;51.638;7.528;2022-11-15T03:28:03;100314.16;;;11.78;100.00
55010;BME280;40903;51.638;7.528;2022-11-15T03:30:30;100319.91;;;11.76;100.00
55010;BME280;40903;51.638;7.528;2022-11-15T03:32:57;100319.41;;;11.74;100.00
55010;BME280;40903;51.638;7.528;2022-11-15T03:35:24;100316.38;;;11.76;100.00
55010;BME280;40903;51.638;7.528;2022-11-15T03:38:14;100317.19;;;11.76;100.00
55010;BME280;40903;51.638;7.528;2022-11-15T03:40:39;100312.81;;;11.75;100.00
55010;BME280;40903;51.638;7.528;2022-11-15T03:48:27;100307.78;;;11.82;100.00
55010;BME280;40903;51.638;7.528;2022-11-15T03:50:55;100303.44;;;11.81;100.00
55010;BME280;40903;51.638;7.528;2022-11-15T03:53:21;100307.78;;;11.82;100.00
55010;BME280;40903;51.638;7.528;2022-11-15T03:55:46;100307.78;;;11.82;100.00
55010;BME280;40903;51.638;7.528;2022-11-15T03:58:11;100298.66;;;11.87;100.00
55010;BME280;40903;51.638;7.528;2022-11-15T04:00:37;100299.44;;;11.87;100.00
55010;BME280;40903;51.638;7.528;2022-11-15T04:03:02;100297.41;;;11.93;100.00
55010;BME280;40903;51.638;7.528;2022-11-15T04:05:27;100288.22;;;11.89;100.00
55010;BME280;40903;51.638;7.528;2022-11-15T04:07:52;100296.09;;;11.90;100.00
55010;BME280;40903;51.638;7.528;2022-11-15T04:10:18;100279.41;;;11.92;100.00
55010;BME280;40903;51.638;7.528;2022-11-15T04:12:43;100285.66;;;11.92;100.00
55010;BME280;40903;51.638;7.528;2022-11-15T04:15:12;100282.94;;;11.92;100.00
55010;BME280;40903;51.638;7.528;2022-11-15T04:17:45;100279.91;;;11.94;100.00
55010;BME280;40903;51.638;7.528;2022-11-15T04:23:04;100287.03;;;12.03;100.00
55010;BME280;40903;51.638;7.528;2022-11-15T04:25:49;100283.44;;;12.16;100.00
55010;BME280;40903;51.638;7.528;2022-11-15T04:28:15;100285.75;;;12.23;100.00
55010;BME280;40903;51.638;7.528;2022-11-15T04:30:40;100277.72;;;12.26;100.00
55010;BME280;40903;51.638;7.528;2022-11-15T04:33:06;100277.25;;;12.24;100.00
55010;BME280;40903;51.638;7.528;2022-11-15T04:35:31;100280.31;;;12.31;100.00
55010;BME280;40903;51.638;7.528;2022-11-15T04:37:57;100274.84;;;12.31;100.00
55010;BME280;40903;51.638;7.528;2022-11-15T04:40:22;100280.63;;;12.30;100.00
55010;BME280;40903;51.638;7.528;2022-11-15T04:42:47;100287.72;;;12.31;100.00
55010;BME280;40903;51.638;7.528;2022-11-15T04:45:12;100284.31;;;12.25;100.00
55010;BME280;40903;51.638;7.528;2022-11-15T04:47:38;100291.41;;;12.26;100.00
55010;BME280;40903;51.638;7.528;2022-11-15T04:50:03;100289.94;;;12.29;100.00
55010;BME280;40903;51.638;7.528;2022-11-15T04:52:28;100285.78;;;12.31;100.00
55010;BME280;40903;51.638;7.528;2022-11-15T04:54:54;100283.25;;;12.35;100.00
55010;BME280;40903;51.638;7.528;2022-11-15T04:57:19;100278.28;;;12.37;100.00
55010;BME280;40903;51.638;7.528;2022-11-15T04:59:44;100271.69;;;12.38;100.00
55010;BME280;40903;51.638;7.528;2022-11-15T05:02:09;100278.13;;;12.42;100.00
55010;BME280;40903;51.638;7.528;2022-11-15T05:04:35;100278.13;;;12.42;100.00
55010;BME280;40903;51.638;7.528;2022-11-15T05:07:00;100269.97;;;12.50;100.00
55010;BME280;40903;51.638;7.528;2022-11-15T05:09:26;100273.03;;;12.49;100.00
55010;BME280;40903;51.638;7.528;2022-11-15T05:11:51;100273.03;;;12.49;100.00
55010;BME280;40903;51.638;7.528;2022-11-15T05:14:17;100280.75;;;12.47;100.00
55010;BME280;40903;51.638;7.528;2022-11-15T05:16:43;100275.44;;;12.50;100.00
55010;BME280;40903;51.638;7.528;2022-11-15T05:19:09;100281.28;;;12.57;100.00
55010;BME280;40903;51.638;7.528;2022-11-15T05:21:34;100276.63;;;12.58;100.00
55010;BME280;40903;51.638;7.528;2022-11-15T05:24:00;100276.63;;;12.58;100.00
55010;BME280;40903;51.638;7.528;2022-11-15T05:26:26;100269.72;;;12.60;100.00
55010;BME280;40903;51.638;7.528;2022-11-15T05:28:55;100282.47;;;12.65;100.00
55010;BME280;40903;51.638;7.528;2022-11-15T05:31:20;100273.44;;;12.64;100.00
55010;BME280;40903;51.638;7.528;2022-11-15T05:33:46;100262.50;;;12.64;100.00
55010;BME280;40903;51.638;7.528;2022-11-15T05:38:37;100268.44;;;12.66;100.00
55010;BME280;40903;51.638;7.528;2022-11-15T05:41:02;100259.13;;;12.67;100.00
55010;BME280;40903;51.638;7.528;2022-11-15T05:43:29;100258.97;;;12.64;100.00
55010;BME280;40903;51.638;7.528;2022-11-15T05:45:56;100261.06;;;12.67;100.00
55010;BME280;40903;51.638;7.528;2022-11-15T05:48:22;100260.88;;;12.63;100.00
55010;BME280;40903;51.638;7.528;2022-11-15T05:50:47;100254.72;;;12.58;100.00
55010;BME280;40903;51.638;7.528;2022-11-15T05:53:14;100254.63;;;12.63;100.00
55010;BME280;40903;51.638;7.528;2022-11-15T05:55:40;100258.47;;;12.62;100.00
55010;BME280;40903;51.638;7.528;2022-11-15T05:58:06;100252.50;;;12.60;100.00
55010;BME280;40903;51.638;7.528;2022-11-15T06:00:31;100252.03;;;12.66;100.00
55010;BME280;40903;51.638;7.528;2022-11-15T06:02:57;100256.53;;;12.62;100.00
55010;BME280;40903;51.638;7.528;2022-11-15T06:05:22;100241.72;;;12.63;100.00
55010;BME280;40903;51.638;7.528;2022-11-15T06:07:47;100247.69;;;12.65;100.00
55010;BME280;40903;51.638;7.528;2022-11-15T06:10:12;100256.28;;;12.72;100.00
55010;BME280;40903;51.638;7.528;2022-11-15T06:12:38;100252.59;;;12.77;100.00
55010;BME280;40903;51.638;7.528;2022-11-15T06:15:03;100258.66;;;12.74;100.00
55010;BME280;40903;51.638;7.528;2022-11-15T06:17:28;100260.91;;;12.72;100.00
55010;BME280;40903;51.638;7.528;2022-11-15T06:19:54;100260.13;;;12.71;100.00
55010;BME280;40903;51.638;7.528;2022-11-15T06:22:19;100263.84;;;12.75;100.00
55010;BME280;40903;51.638;7.528;2022-11-15T06:24:44;100260.28;;;12.75;100.00
55010;BME280;40903;51.638;7.528;2022-11-15T06:27:10;100269.53;;;12.87;100.00
55010;BME280;40903;51.638;7.528;2022-11-15T06:29:35;100271.59;;;12.82;100.00
55010;BME280;40903;51.638;7.528;2022-11-15T06:32:01;100276.88;;;12.78;100.00
55010;BME280;40903;51.638;7.528;2022-11-15T06:34:26;100278.19;;;12.81;100.00
55010;BME280;40903;51.638;7.528;2022-11-15T06:36:51;100275.28;;;12.77;100.00
55010;BME280;40903;51.638;7.528;2022-11-15T06:39:18;100278.84;;;12.86;100.00
55010;BME280;40903;51.638;7.528;2022-11-15T06:41:43;100283.81;;;12.84;100.00
55010;BME280;40903;51.638;7.528;2022-11-15T06:44:08;100287.69;;;12.83;100.00
55010;BME280;40903;51.638;7.528;2022-11-15T06:46:33;100286.22;;;12.77;100.00
55010;BME280;40903;51.638;7.528;2022-11-15T06:48:58;100292.50;;;12.78;100.00
55010;BME280;40903;51.638;7.528;2022-11-15T06:51:24;100285.56;;;12.80;100.00
55010;BME280;40903;51.638;7.528;2022-11-15T06:53:49;100286.69;;;12.79;100.00
55010;BME280;40903;51.638;7.528;2022-11-15T06:56:14;100291.19;;;12.75;100.00
55010;BME280;40903;51.638;7.528;2022-11-15T06:58:39;100298.31;;;12.85;100.00
55010;BME280;40903;51.638;7.528;2022-11-15T07:01:05;100300.22;;;12.84;100.00
55010;BME280;40903;51.638;7.528;2022-11-15T07:03:31;100301.69;;;12.82;100.00
55010;BME280;40903;51.638;7.528;2022-11-15T07:05:57;100299.75;;;12.82;100.00
55010;BME280;40903;51.638;7.528;2022-11-15T07:08:23;100310.69;;;12.82;100.00
55010;BME280;40903;51.638;7.528;2022-11-15T07:10:48;100309.75;;;12.87;100.00
55010;BME280;40903;51.638;7.528;2022-11-15T07:13:14;100307.09;;;12.95;99.95
55010;BME280;40903;51.638;7.528;2022-11-15T07:15:39;100313.38;;;12.96;99.32
55010;BME280;40903;51.638;7.528;2022-11-15T07:18:04;100306.78;;;12.97;99.43
55010;BME280;40903;51.638;7.528;2022-11-15T07:20:29;100308.22;;;12.94;98.80
55010;BME280;40903;51.638;7.528;2022-11-15T07:23:01;100314.28;;;12.91;99.28
55010;BME280;40903;51.638;7.528;2022-11-15T07:25:27;100312.88;;;12.94;98.80
55010;BME280;40903;51.638;7.528;2022-11-15T07:27:55;100319.50;;;12.93;98.82
55010;BME280;40903;51.638;7.528;2022-11-15T07:30:21;100318.16;;;12.90;98.38
55010;BME280;40903;51.638;7.528;2022-11-15T07:32:46;100318.38;;;12.94;98.15
55010;BME280;40903;51.638;7.528;2022-11-15T07:35:13;100326.72;;;12.97;98.09
55010;BME280;40903;51.638;7.528;2022-11-15T07:37:38;100321.94;;;13.03;97.30
55010;BME280;40903;51.638;7.528;2022-11-15T07:40:03;100333.06;;;13.06;96.48
55010;BME280;40903;51.638;7.528;2022-11-15T07:42:31;100326.66;;;13.11;95.36
55010;BME280;40903;51.638;7.528;2022-11-15T07:45:15;100332.91;;;13.11;95.14
55010;BME280;40903;51.638;7.528;2022-11-15T07:47:40;100334.41;;;13.17;94.37
55010;BME280;40903;51.638;7.528;2022-11-15T07:50:05;100337.00;;;13.22;92.48
55010;BME280;40903;51.638;7.528;2022-11-15T07:52:30;100331.97;;;13.16;92.99
55010;BME280;40903;51.638;7.528;2022-11-15T07:54:55;100338.28;;;13.25;91.45
55010;BME280;40903;51.638;7.528;2022-11-15T07:57:21;100335.59;;;13.33;90.31
55010;BME280;40903;51.638;7.528;2022-11-15T07:59:46;100337.16;;;13.26;90.83
55010;BME280;40903;51.638;7.528;2022-11-15T08:02:11;100336.69;;;13.24;91.37
55010;BME280;40903;51.638;7.528;2022-11-15T08:04:36;100336.69;;;13.24;91.27
55010;BME280;40903;51.638;7.528;2022-11-15T08:07:02;100337.47;;;13.24;90.46
55010;BME280;40903;51.638;7.528;2022-11-15T08:09:27;100346.03;;;13.23;90.61
55010;BME280;40903;51.638;7.528;2022-11-15T08:11:52;100344.06;;;13.23;89.13
55010;BME280;40903;51.638;7.528;2022-11-15T08:14:18;100348.75;;;13.23;89.08
55010;BME280;40903;51.638;7.528;2022-11-15T08:16:43;100335.56;;;13.25;88.05
55010;BME280;40903;51.638;7.528;2022-11-15T08:19:08;100342.00;;;13.29;87.83
55010;BME280;40903;51.638;7.528;2022-11-15T08:21:33;100346.66;;;13.28;87.60
55010;BME280;40903;51.638;7.528;2022-11-15T08:24:00;100339.94;;;13.34;86.80
55010;BME280;40903;51.638;7.528;2022-11-15T08:26:25;100336.84;;;13.36;86.16
55010;BME280;40903;51.638;7.528;2022-11-15T08:28:54;100332.88;;;13.42;85.58
55010;BME280;40903;51.638;7.528;2022-11-15T08:31:19;100334.78;;;13.41;85.18
55010;BME280;40903;51.638;7.528;2022-11-15T08:33:44;100331.75;;;13.43;85.28
55010;BME280;40903;51.638;7.528;2022-11-15T08:36:14;100337.72;;;13.45;84.21
55010;BME280;40903;51.638;7.528;2022-11-15T08:38:39;100330.31;;;13.45;84.37
55010;BME280;40903;51.638;7.528;2022-11-15T08:41:05;100326.09;;;13.48;83.19
55010;BME280;40903;51.638;7.528;2022-11-15T08:43:31;100325.44;;;13.42;84.13
55010;BME280;40903;51.638;7.528;2022-11-15T08:45:56;100334.31;;;13.48;83.44
55010;BME280;40903;51.638;7.528;2022-11-15T08:48:22;100340.63;;;13.48;83.05
55010;BME280;40903;51.638;7.528;2022-11-15T08:50:47;100331.78;;;13.60;81.98
55010;BME280;40903;51.638;7.528;2022-11-15T08:53:12;100326.00;;;13.61;82.70
55010;BME280;40903;51.638;7.528;2022-11-15T08:55:38;100337.59;;;13.67;81.51
55010;BME280;40903;51.638;7.528;2022-11-15T08:58:04;100337.44;;;13.72;80.40
55010;BME280;40903;51.638;7.528;2022-11-15T09:00:29;100330.38;;;13.79;79.64
55010;BME280;40903;51.638;7.528;2022-11-15T09:02:54;100327.63;;;13.87;78.37
55010;BME280;40903;51.638;7.528;2022-11-15T09:05:20;100335.69;;;13.92;78.84
55010;BME280;40903;51.638;7.528;2022-11-15T09:07:45;100322.63;;;13.98;77.86
55010;BME280;40903;51.638;7.528;2022-11-15T09:10:10;100319.59;;;13.99;77.62
55010;BME280;40903;51.638;7.528;2022-11-15T09:12:36;100319.72;;;13.94;77.34
55010;BME280;40903;51.638;7.528;2022-11-15T09:15:01;100319.72;;;14.03;76.60
55010;BME280;40903;51.638;7.528;2022-11-15T09:17:26;100317.31;;;14.01;75.58
55010;BME280;40903;51.638;7.528;2022-11-15T09:19:51;100315.38;;;14.02;74.89
55010;BME280;40903;51.638;7.528;2022-11-15T09:22:17;100317.16;;;14.06;74.39
55010;BME280;40903;51.638;7.528;2022-11-15T09:24:42;100317.63;;;14.08;74.74
55010;BME280;40903;51.638;7.528;2022-11-15T09:27:07;100318.47;;;14.09;73.93
55010;BME280;40903;51.638;7.528;2022-11-15T09:29:33;100315.72;;;14.09;74.39
55010;BME280;40903;51.638;7.528;2022-11-15T09:31:58;100316.50;;;14.09;74.85
55010;BME280;40903;51.638;7.528;2022-11-15T09:34:23;100308.75;;;14.11;72.88
55010;BME280;40903;51.638;7.528;2022-11-15T09:36:49;100318.78;;;14.07;72.73
55010;BME280;40903;51.638;7.528;2022-11-15T09:39:14;100312.81;;;14.05;72.11
55010;BME280;40903;51.638;7.528;2022-11-15T09:41:48;100308.94;;;14.06;72.34
55010;BME280;40903;51.638;7.528;2022-11-15T09:47:05;100312.31;;;14.12;71.81
55010;BME280;40903;51.638;7.528;2022-11-15T09:49:34;100299.09;;;14.05;71.60
55010;BME280;40903;51.638;7.528;2022-11-15T09:51:59;100293.44;;;14.10;71.79
55010;BME280;40903;51.638;7.528;2022-11-15T09:56:56;100298.81;;;14.24;71.44
55010;BME280;40903;51.638;7.528;2022-11-15T10:04:55;100308.63;;;14.25;69.63
55010;BME280;40903;51.638;7.528;2022-11-15T10:10:34;100292.84;;;14.22;69.89
55010;BME280;40903;51.638;7.528;2022-11-15T10:12:40;100300.88;;;14.27;68.79
55010;BME280;40903;51.638;7.528;2022-11-15T10:15:11;100297.66;;;14.33;68.10
55010;BME280;40903;51.638;7.528;2022-11-15T10:17:42;100291.34;;;14.41;67.97
55010;BME280;40903;51.638;7.528;2022-11-15T10:20:25;100291.03;;;14.43;67.40
55010;BME280;40903;51.638;7.528;2022-11-15T10:22:52;100291.34;;;14.50;67.00
55010;BME280;40903;51.638;7.528;2022-11-15T10:25:28;100273.88;;;14.54;66.58
55010;BME280;40903;51.638;7.528;2022-11-15T10:27:58;100274.34;;;14.65;65.88
55010;BME280;40903;51.638;7.528;2022-11-15T10:30:30;100260.91;;;14.72;64.49
55010;BME280;40903;51.638;7.528;2022-11-15T10:32:55;100268.34;;;14.71;64.49
55010;BME280;40903;51.638;7.528;2022-11-15T10:37:48;100260.09;;;14.80;64.17
55010;BME280;40903;51.638;7.528;2022-11-15T10:40:16;100256.03;;;14.86;62.77
55010;BME280;40903;51.638;7.528;2022-11-15T10:42:41;100250.69;;;14.89;64.25
55010;BME280;40903;51.638;7.528;2022-11-15T10:45:29;100252.28;;;14.90;63.62
55010;BME280;40903;51.638;7.528;2022-11-15T10:48:40;100239.03;;;14.92;63.52
55010;BME280;40903;51.638;7.528;2022-11-15T10:50:41;100239.97;;;14.96;62.25
55010;BME280;40903;51.638;7.528;2022-11-15T10:55:48;100232.63;;;15.09;61.41
55010;BME280;40903;51.638;7.528;2022-11-15T10:58:21;100218.72;;;15.14;62.38
55010;BME280;40903;51.638;7.528;2022-11-15T11:00:47;100225.47;;;15.25;63.58
55010;BME280;40903;51.638;7.528;2022-11-15T11:03:29;100222.13;;;15.40;61.65
55010;BME280;40903;51.638;7.528;2022-11-15T11:08:32;100225.09;;;15.35;59.46
55010;BME280;40903;51.638;7.528;2022-11-15T11:10:59;100223.63;;;15.37;58.43
55010;BME280;40903;51.638;7.528;2022-11-15T11:13:29;100223.09;;;15.44;57.29
55010;BME280;40903;51.638;7.528;2022-11-15T11:18:32;100212.88;;;15.44;58.22
55010;BME280;40903;51.638;7.528;2022-11-15T11:20:58;100206.59;;;15.44;56.86
55010;BME280;40903;51.638;7.528;2022-11-15T11:33:33;100192.06;;;15.64;57.41
55010;BME280;40903;51.638;7.528;2022-11-15T11:36:04;100183.25;;;15.70;57.50
55010;BME280;40903;51.638;7.528;2022-11-15T11:44:22;100181.72;;;15.81;55.24
55010;BME280;40903;51.638;7.528;2022-11-15T11:49:03;100187.41;;;15.76;53.61
55010;BME280;40903;51.638;7.528;2022-11-15T11:51:35;100170.59;;;15.77;54.59
55010;BME280;40903;51.638;7.528;2022-11-15T11:54:05;100162.34;;;15.77;54.32
55010;BME280;40903;51.638;7.528;2022-11-15T11:56:36;100169.56;;;15.82;55.47
55010;BME280;40903;51.638;7.528;2022-11-15T11:59:09;100160.56;;;15.93;52.73
55010;BME280;40903;51.638;7.528;2022-11-15T12:01:37;100162.72;;;15.88;53.50
55010;BME280;40903;51.638;7.528;2022-11-15T12:04:09;100165.59;;;15.91;53.63
55010;BME280;40903;51.638;7.528;2022-11-15T12:15:03;100138.34;;;15.98;49.87
55010;BME280;40903;51.638;7.528;2022-11-15T12:17:02;100132.63;;;16.03;50.92
55010;BME280;40903;51.638;7.528;2022-11-15T12:19:28;100145.16;;;16.13;48.34
55010;BME280;40903;51.638;7.528;2022-11-15T12:24:29;100143.63;;;16.03;47.79
55010;BME280;40903;51.638;7.528;2022-11-15T12:27:06;100143.06;;;15.98;47.38
55010;BME280;40903;51.638;7.528;2022-11-15T12:29:37;100150.25;;;15.90;46.41
55010;BME280;40903;51.638;7.528;2022-11-15T12:32:04;100150.09;;;15.87;46.73
55010;BME280;40903;51.638;7.528;2022-11-15T12:34:35;100149.06;;;15.79;46.94
55010;BME280;40903;51.638;7.528;2022-11-15T12:37:01;100151.47;;;15.81;46.91
55010;BME280;40903;51.638;7.528;2022-11-15T12:40:02;100155.47;;;15.83;44.42
55010;BME280;40903;51.638;7.528;2022-11-15T12:47:23;100137.03;;;15.84;44.46
55010;BME280;40903;51.638;7.528;2022-11-15T12:49:48;100134.63;;;15.82;42.98
55010;BME280;40903;51.638;7.528;2022-11-15T12:52:14;100128.88;;;15.76;44.18
55010;BME280;40903;51.638;7.528;2022-11-15T13:02:36;100119.50;;;15.77;45.38
55010;BME280;40903;51.638;7.528;2022-11-15T13:17:39;100084.63;;;15.57;46.43
55010;BME280;40903;51.638;7.528;2022-11-15T13:22:42;100074.03;;;15.47;48.36
55010;BME280;40903;51.638;7.528;2022-11-15T13:27:48;100064.66;;;15.48;48.52
55010;BME280;40903;51.638;7.528;2022-11-15T13:30:18;100057.69;;;15.50;47.90
55010;BME280;40903;51.638;7.528;2022-11-15T13:32:44;100052.38;;;15.45;48.65
55010;BME280;40903;51.638;7.528;2022-11-15T13:35:09;100047.25;;;15.44;49.43
55010;BME280;40903;51.638;7.528;2022-11-15T13:37:34;100043.09;;;15.38;49.27
55010;BME280;40903;51.638;7.528;2022-11-15T13:40:10;100039.53;;;15.37;49.17
55010;BME280;40903;51.638;7.528;2022-11-15T13:42:40;100042.75;;;15.39;49.44
55010;BME280;40903;51.638;7.528;2022-11-15T13:45:12;100026.34;;;15.31;50.27
55010;BME280;40903;51.638;7.528;2022-11-15T13:47:38;100029.75;;;15.28;50.91
55010;BME280;40903;51.638;7.528;2022-11-15T13:50:03;100021.38;;;15.24;50.93
55010;BME280;40903;51.638;7.528;2022-11-15T13:52:33;100022.59;;;15.15;50.95
55010;BME280;40903;51.638;7.528;2022-11-15T13:55:04;100023.00;;;15.05;51.38
55010;BME280;40903;51.638;7.528;2022-11-15T14:00:19;100026.22;;;15.07;51.37
55010;BME280;40903;51.638;7.528;2022-11-15T14:02:47;100013.91;;;14.92;52.85
55010;BME280;40903;51.638;7.528;2022-11-15T14:05:17;100021.41;;;14.83;52.88
55010;BME280;40903;51.638;7.528;2022-11-15T14:10:44;100012.03;;;14.64;54.14
55010;BME280;40903;51.638;7.528;2022-11-15T14:13:26;100008.34;;;14.60;53.64
55010;BME280;40903;51.638;7.528;2022-11-15T14:15:52;100001.41;;;14.62;53.54
55010;BME280;40903;51.638;7.528;2022-11-15T14:21:05;99995.22;;;14.45;55.43
55010;BME280;40903;51.638;7.528;2022-11-15T14:23:30;99993.63;;;14.44;54.96
55010;BME280;40903;51.638;7.528;2022-11-15T14:25:56;99993.66;;;14.35;55.87
55010;BME280;40903;51.638;7.528;2022-11-15T14:30:47;99996.22;;;14.40;55.98
55010;BME280;40903;51.638;7.528;2022-11-15T14:33:28;99986.53;;;14.43;57.00
55010;BME280;40903;51.638;7.528;2022-11-15T14:35:54;99980.44;;;14.37;57.21
55010;BME280;40903;51.638;7.528;2022-11-15T14:38:21;99972.66;;;14.39;57.25
55010;BME280;40903;51.638;7.528;2022-11-15T14:40:46;99970.28;;;14.38;57.59
55010;BME280;40903;51.638;7.528;2022-11-15T14:43:11;99964.13;;;14.41;57.45
55010;BME280;40903;51.638;7.528;2022-11-15T14:45:37;99959.97;;;14.35;58.00
55010;BME280;40903;51.638;7.528;2022-11-15T14:48:02;99954.13;;;14.36;57.54
55010;BME280;40903;51.638;7.528;2022-11-15T14:50:28;99945.59;;;14.38;58.26
55010;BME280;40903;51.638;7.528;2022-11-15T14:52:53;99953.00;;;14.37;58.44
55010;BME280;40903;51.638;7.528;2022-11-15T14:57:46;99930.19;;;14.25;58.91
55010;BME280;40903;51.638;7.528;2022-11-15T15:00:12;99932.00;;;14.21;59.39
55010;BME280;40903;51.638;7.528;2022-11-15T15:02:37;99929.56;;;14.19;59.58
55010;BME280;40903;51.638;7.528;2022-11-15T15:05:14;99917.66;;;14.15;59.84
55010;BME280;40903;51.638;7.528;2022-11-15T15:07:39;99921.06;;;14.12;59.85
55010;BME280;40903;51.638;7.528;2022-11-15T15:10:04;99914.97;;;14.07;60.07